Time;durP1;ratioP1;P1;durP2;ratioP2;P2;SDS_P1;SDS_P2;PMS_P1;PMS_P2;Temp;Humidity;BMP_temperature;BMP_pressure;BME280_temperature;BME280_humidity;BME280_pressure;Samples;Min_cycle;Max_cycle;Signal;HPM_P1;HPM_P2
2022/11/18 00:00:32;;;;;;;1.27;0.70;;;8.80;99.90;;;;;;5015038;28;20178;-86
2022/11/18 00:02:57;;;;;;;0.90;0.50;;;8.70;99.90;;;;;;5031579;28;20201;-86
2022/11/18 00:05:23;;;;;;;1.87;0.90;;;8.70;99.90;;;;;;5014596;28;20210;-86
2022/11/18 00:07:49;;;;;;;1.50;0.70;;;8.70;99.90;;;;;;5030599;28;20198;-86
2022/11/18 00:10:15;;;;;;;1.30;0.83;;;8.70;99.90;;;;;;5014761;28;20182;-86
2022/11/18 00:15:25;;;;;;;3.43;1.60;;;8.70;99.90;;;;;;5035529;28;20198;-86
2022/11/18 00:17:51;;;;;;;1.40;0.90;;;8.70;99.90;;;;;;5018466;28;20186;-86
2022/11/18 00:20:17;;;;;;;1.27;0.93;;;8.70;99.90;;;;;;5019068;28;20643;-86
2022/11/18 00:22:45;;;;;;;3.07;1.10;;;8.60;99.90;;;;;;5036279;28;20308;-86
2022/11/18 00:25:10;;;;;;;2.83;1.00;;;8.50;99.90;;;;;;5018808;28;20277;-87
2022/11/18 00:27:36;;;;;;;0.93;0.83;;;8.60;99.90;;;;;;5033666;28;20371;-86
2022/11/18 00:30:03;;;;;;;0.77;0.67;;;8.60;99.90;;;;;;5018821;28;20261;-86
2022/11/18 00:32:28;;;;;;;2.43;0.97;;;8.60;99.90;;;;;;5018521;28;20266;-87
2022/11/18 00:34:54;;;;;;;1.47;1.00;;;8.60;99.90;;;;;;5018454;28;20352;-86
2022/11/18 00:37:20;;;;;;;1.87;0.70;;;8.60;99.90;;;;;;5034920;28;20240;-86
2022/11/18 00:39:46;;;;;;;1.37;0.80;;;8.60;99.90;;;;;;5018351;28;20279;-87
2022/11/18 00:44:56;;;;;;;1.27;0.90;;;8.70;99.90;;;;;;5034497;28;20211;-86
2022/11/18 00:47:22;;;;;;;1.33;1.00;;;8.60;99.90;;;;;;5018132;28;20186;-86
2022/11/18 00:49:48;;;;;;;1.23;0.67;;;8.60;99.90;;;;;;5018259;28;20183;-87
2022/11/18 00:52:13;;;;;;;3.03;0.80;;;8.60;99.90;;;;;;5018125;28;20186;-87
2022/11/18 00:54:39;;;;;;;1.23;0.70;;;8.60;99.90;;;;;;5018439;28;20253;-87
2022/11/18 00:57:05;;;;;;;1.17;0.77;;;8.50;99.90;;;;;;5034641;28;20202;-86
2022/11/18 00:59:31;;;;;;;3.07;0.70;;;8.40;99.90;;;;;;5019175;28;20185;-87
2022/11/18 01:01:58;;;;;;;1.67;1.23;;;8.40;99.90;;;;;;5034129;28;20677;-89
2022/11/18 01:04:24;;;;;;;1.30;0.83;;;8.50;99.90;;;;;;5018159;28;20218;-86
2022/11/18 01:06:50;;;;;;;1.70;0.87;;;8.40;99.90;;;;;;5051153;28;20174;-87
2022/11/18 01:09:16;;;;;;;3.87;0.93;;;8.40;99.90;;;;;;5034306;28;20182;-88
2022/11/18 01:14:29;;;;;;;1.47;1.00;;;8.30;99.90;;;;;;5050923;28;20241;-87
2022/11/18 01:16:56;;;;;;;1.90;1.20;;;8.30;99.90;;;;;;5034014;28;20193;-88
2022/11/18 01:19:22;;;;;;;3.00;1.00;;;8.30;99.90;;;;;;5034200;28;20183;-87
2022/11/18 01:21:48;;;;;;;1.60;0.80;;;8.20;99.90;;;;;;5034234;28;20224;-87
2022/11/18 01:24:14;;;;;;;1.10;1.00;;;8.20;99.90;;;;;;5033725;28;20217;-86
2022/11/18 01:26:41;;;;;;;1.20;1.00;;;8.20;99.90;;;;;;5034207;28;20179;-86
2022/11/18 01:29:07;;;;;;;1.27;0.97;;;8.20;99.90;;;;;;5034854;28;20174;-87
2022/11/18 01:31:33;;;;;;;1.30;1.00;;;8.30;99.90;;;;;;5033916;28;20265;-87
2022/11/18 01:33:59;;;;;;;1.57;0.90;;;8.30;99.90;;;;;;5034094;28;20631;-87
2022/11/18 01:36:26;;;;;;;1.63;1.07;;;8.30;99.90;;;;;;5030709;28;20221;-86
2022/11/18 01:38:53;;;;;;;1.27;1.00;;;8.30;99.90;;;;;;5013870;28;20655;-86
2022/11/18 01:41:22;;;;;;;2.17;1.13;;;8.30;99.90;;;;;;5014055;28;20226;-86
2022/11/18 01:44:03;;;;;;;1.73;0.90;;;8.30;99.90;;;;;;5013994;28;20184;-87
2022/11/18 01:46:31;;;;;;;1.57;1.27;;;8.40;99.90;;;;;;5014691;28;20213;-86
2022/11/18 01:49:03;;;;;;;1.00;0.90;;;8.30;99.90;;;;;;5033498;28;20178;-87
2022/11/18 01:51:35;;;;;;;1.27;1.00;;;8.40;99.90;;;;;;5033622;28;20189;-86
2022/11/18 01:54:11;;;;;;;0.87;0.87;;;8.40;99.90;;;;;;5033432;28;20177;-87
2022/11/18 01:56:51;;;;;;;1.13;0.80;;;8.40;99.90;;;;;;5033815;28;20174;-86
2022/11/18 01:59:21;;;;;;;2.07;1.33;;;8.40;99.90;;;;;;5033694;28;20188;-87
2022/11/18 02:01:47;;;;;;;1.63;1.00;;;8.50;99.90;;;;;;5049952;28;20230;-87
2022/11/18 02:04:14;;;;;;;1.63;0.97;;;8.50;99.90;;;;;;5017008;28;20202;-86
2022/11/18 02:06:42;;;;;;;1.37;0.87;;;8.50;99.90;;;;;;5049726;28;20173;-86
2022/11/18 02:09:09;;;;;;;1.60;0.93;;;8.50;99.90;;;;;;5033463;28;20178;-87
2022/11/18 02:11:50;;;;;;;0.90;0.90;;;8.50;99.90;;;;;;5049955;28;20203;-86
2022/11/18 02:14:20;;;;;;;1.40;0.93;;;8.50;99.90;;;;;;5033193;28;20194;-86
2022/11/18 02:17:07;;;;;;;1.77;1.40;;;8.50;99.90;;;;;;5049703;28;20265;-88
2022/11/18 02:19:54;;;;;;;1.83;0.90;;;8.40;99.90;;;;;;5033079;28;20175;-86
2022/11/18 02:22:45;;;;;;;1.03;0.93;;;8.30;99.90;;;;;;5033137;28;20167;-87
2022/11/18 02:25:30;;;;;;;1.30;1.07;;;8.40;99.90;;;;;;5032810;28;20226;-86
2022/11/18 02:28:34;;;;;;;2.83;1.10;;;8.40;99.90;;;;;;5032762;28;20224;-86
2022/11/18 02:31:11;;;;;;;1.10;1.00;;;8.40;99.90;;;;;;5031895;28;20182;-87
2022/11/18 02:33:53;;;;;;;2.20;1.30;;;8.40;99.90;;;;;;5015329;28;20201;-86
2022/11/18 02:36:27;;;;;;;3.10;1.60;;;8.40;99.90;;;;;;5041262;28;20193;-86
2022/11/18 02:38:57;;;;;;;2.87;1.60;;;8.40;99.90;;;;;;5032734;28;20611;-87
2022/11/18 02:41:28;;;;;;;1.50;1.40;;;8.40;99.90;;;;;;5032660;28;20167;-86
2022/11/18 02:44:04;;;;;;;1.23;1.13;;;8.40;99.90;;;;;;5032579;28;20159;-87
2022/11/18 02:46:36;;;;;;;2.80;1.10;;;8.50;99.90;;;;;;5032420;28;20198;-86
2022/11/18 02:49:15;;;;;;;1.43;1.17;;;8.40;99.90;;;;;;5032442;28;20175;-87
2022/11/18 02:51:44;;;;;;;1.93;1.23;;;8.40;99.90;;;;;;5032744;28;20198;-87
2022/11/18 02:54:12;;;;;;;2.23;1.20;;;8.40;99.90;;;;;;5016034;28;20209;-87
2022/11/18 02:56:38;;;;;;;2.23;1.00;;;8.40;99.90;;;;;;5015689;28;20189;-86
2022/11/18 02:59:05;;;;;;;2.40;1.30;;;8.40;99.90;;;;;;5016111;28;20190;-86
2022/11/18 03:01:34;;;;;;;1.97;1.50;;;8.40;99.90;;;;;;5015939;28;20186;-86
2022/11/18 03:04:01;;;;;;;1.40;1.30;;;8.40;99.90;;;;;;5015718;28;20206;-86
2022/11/18 03:06:35;;;;;;;2.33;1.40;;;8.40;99.90;;;;;;5016000;28;20209;-87
2022/11/18 03:09:04;;;;;;;2.80;1.80;;;8.40;99.90;;;;;;5035288;28;20167;-86
2022/11/18 03:11:51;;;;;;;2.03;1.83;;;8.40;99.90;;;;;;5019480;28;20312;-86
2022/11/18 03:14:34;;;;;;;2.30;2.10;;;8.40;99.90;;;;;;5005096;28;20209;-86
2022/11/18 03:17:17;;;;;;;2.27;2.07;;;8.40;99.90;;;;;;5015533;28;20264;-86
2022/11/18 03:19:59;;;;;;;2.90;2.60;;;8.30;99.90;;;;;;5031941;28;20187;-86
2022/11/18 03:22:30;;;;;;;2.40;2.13;;;8.30;99.90;;;;;;5015344;28;20309;-86
2022/11/18 03:25:25;;;;;;;2.20;2.00;;;8.30;99.90;;;;;;5014830;28;20210;-86
2022/11/18 03:28:11;;;;;;;3.40;2.00;;;8.30;99.90;;;;;;5015588;28;20175;-86
2022/11/18 03:30:52;;;;;;;2.30;1.57;;;8.30;99.90;;;;;;5013708;28;20179;-86
2022/11/18 03:33:23;;;;;;;1.87;1.37;;;8.30;99.90;;;;;;4996040;28;20179;-86
2022/11/18 03:35:52;;;;;;;1.47;1.30;;;8.30;99.90;;;;;;5011767;28;20203;-86
2022/11/18 03:38:28;;;;;;;3.13;1.50;;;8.30;99.90;;;;;;5011994;28;20183;-86
2022/11/18 03:40:58;;;;;;;1.40;1.27;;;8.30;99.90;;;;;;5011953;28;20237;-86
2022/11/18 03:43:31;;;;;;;1.33;1.23;;;8.30;99.90;;;;;;5011990;28;20278;-86
2022/11/18 03:46:08;;;;;;;1.50;1.40;;;8.30;99.90;;;;;;5011643;28;20239;-86
2022/11/18 03:48:40;;;;;;;1.40;1.30;;;8.30;99.90;;;;;;5011633;28;20254;-86
2022/11/18 03:51:10;;;;;;;1.50;1.27;;;8.40;99.90;;;;;;5011916;28;20190;-86
2022/11/18 03:53:42;;;;;;;1.67;1.40;;;8.40;99.90;;;;;;5012021;28;20180;-86
2022/11/18 03:56:20;;;;;;;1.60;1.40;;;8.40;99.90;;;;;;5011143;28;20195;-86
2022/11/18 03:59:15;;;;;;;1.57;1.47;;;8.50;99.90;;;;;;5011453;28;20179;-86
2022/11/18 04:01:55;;;;;;;2.17;1.50;;;8.40;99.90;;;;;;5011652;28;20215;-87
2022/11/18 04:04:23;;;;;;;2.30;1.87;;;8.40;99.90;;;;;;5011553;28;20207;-87
2022/11/18 04:07:07;;;;;;;1.83;1.70;;;8.40;99.90;;;;;;5026963;28;20174;-86
2022/11/18 04:10:05;;;;;;;2.70;1.60;;;8.40;99.90;;;;;;5015070;28;20163;-86
2022/11/18 04:12:35;;;;;;;2.30;1.20;;;8.40;99.90;;;;;;5010259;28;20256;-86
2022/11/18 04:15:01;;;;;;;0.90;0.90;;;8.40;99.90;;;;;;5015058;28;20233;-86
2022/11/18 04:17:27;;;;;;;1.17;1.07;;;8.30;99.90;;;;;;5014965;28;20266;-87
2022/11/18 04:19:54;;;;;;;2.87;1.10;;;8.40;99.90;;;;;;5014716;28;20201;-86
2022/11/18 04:22:20;;;;;;;0.80;0.80;;;8.40;99.90;;;;;;5014863;28;20210;-87
2022/11/18 04:24:46;;;;;;;0.80;0.80;;;8.40;99.90;;;;;;5031442;28;20213;-87
2022/11/18 04:27:12;;;;;;;1.60;0.90;;;8.40;99.90;;;;;;5014818;28;20171;-87
2022/11/18 04:29:39;;;;;;;0.80;0.70;;;8.40;99.90;;;;;;5015087;28;20640;-86
2022/11/18 04:32:05;;;;;;;0.60;0.60;;;8.30;99.90;;;;;;5031033;28;20179;-87
2022/11/18 04:34:31;;;;;;;0.77;0.70;;;8.30;99.90;;;;;;5015025;28;20265;-86
2022/11/18 04:36:57;;;;;;;1.10;0.70;;;8.30;99.90;;;;;;5030788;28;20186;-86
2022/11/18 04:39:23;;;;;;;0.53;0.50;;;8.30;99.90;;;;;;5029297;28;20201;-87
2022/11/18 04:41:55;;;;;;;2.63;0.80;;;8.30;99.90;;;;;;5014320;28;20186;-88
2022/11/18 04:44:23;;;;;;;1.50;0.60;;;8.30;99.90;;;;;;5014591;28;20219;-88
2022/11/18 04:46:50;;;;;;;1.00;0.80;;;8.20;99.90;;;;;;5014195;28;20179;-88
2022/11/18 04:49:15;;;;;;;1.67;0.50;;;8.30;99.90;;;;;;5014158;28;20305;-88
2022/11/18 04:51:43;;;;;;;1.00;0.80;;;8.30;99.90;;;;;;5014691;28;20191;-88
2022/11/18 04:54:13;;;;;;;0.60;0.60;;;8.20;99.90;;;;;;5030374;28;20206;-88
2022/11/18 04:56:42;;;;;;;0.97;0.60;;;8.20;99.90;;;;;;5014450;28;20261;-88
2022/11/18 04:59:32;;;;;;;0.60;0.60;;;8.20;99.90;;;;;;5016169;28;20273;-89
2022/11/18 05:01:59;;;;;;;0.47;0.47;;;8.20;99.90;;;;;;5018084;28;20205;-89
2022/11/18 05:04:31;;;;;;;0.90;0.70;;;8.20;99.90;;;;;;5017938;28;20237;-88
2022/11/18 05:06:58;;;;;;;1.13;0.80;;;8.20;99.90;;;;;;5034593;28;20222;-88
2022/11/18 05:09:25;;;;;;;1.47;1.00;;;8.20;99.90;;;;;;5054218;28;20182;-88
2022/11/18 05:14:38;;;;;;;1.20;1.00;;;8.20;99.90;;;;;;5053454;28;20206;-88
2022/11/18 05:17:06;;;;;;;2.17;1.23;;;8.20;99.90;;;;;;5035798;28;20186;-88
2022/11/18 05:19:32;;;;;;;2.07;1.20;;;8.20;99.90;;;;;;5020515;28;20245;-88
2022/11/18 05:21:58;;;;;;;1.00;0.80;;;8.20;99.90;;;;;;5019855;28;20179;-88
2022/11/18 05:24:24;;;;;;;2.03;0.50;;;8.20;99.90;;;;;;5017343;28;20221;-88
2022/11/18 05:30:38;;;;;;;1.23;0.67;;;8.20;99.90;;;;;;5018721;28;20197;-88
2022/11/18 05:33:04;;;;;;;0.67;0.50;;;8.10;99.90;;;;;;5017627;28;20179;-88
2022/11/18 05:35:30;;;;;;;0.70;0.70;;;8.10;99.90;;;;;;5017454;28;20202;-88
2022/11/18 05:37:56;;;;;;;0.97;0.97;;;8.10;99.90;;;;;;5018103;28;20300;-88
2022/11/18 05:40:22;;;;;;;1.93;1.60;;;8.10;99.90;;;;;;5017842;28;20217;-88
2022/11/18 05:45:32;;;;;;;5.57;4.20;;;8.00;99.90;;;;;;5034407;28;20214;-88
2022/11/18 05:48:02;;;;;;;3.40;3.10;;;8.00;99.90;;;;;;5017739;28;20244;-88
2022/11/18 05:50:33;;;;;;;3.27;2.50;;;7.90;99.90;;;;;;5017582;28;20213;-88
2022/11/18 05:53:00;;;;;;;3.10;2.80;;;7.90;99.90;;;;;;5017792;28;20574;-88
2022/11/18 05:56:00;;;;;;;1.60;1.50;;;7.90;99.90;;;;;;5033910;28;20210;-88
2022/11/18 05:58:27;;;;;;;2.23;2.00;;;7.90;99.90;;;;;;5032789;28;20209;-88
2022/11/18 06:00:55;;;;;;;2.10;1.90;;;8.00;99.90;;;;;;5020406;28;20178;-88
2022/11/18 06:03:27;;;;;;;2.03;0.90;;;8.10;99.90;;;;;;5017251;28;20639;-88
2022/11/18 06:05:54;;;;;;;1.90;0.73;;;8.10;99.90;;;;;;5016691;28;20215;-88
2022/11/18 06:08:22;;;;;;;0.90;0.70;;;8.10;99.90;;;;;;5033924;28;20213;-88
2022/11/18 06:10:49;;;;;;;0.97;0.70;;;8.10;99.90;;;;;;5032952;28;20187;-89
2022/11/18 06:13:22;;;;;;;1.60;0.83;;;8.00;99.90;;;;;;5033838;28;20186;-89
2022/11/18 06:15:48;;;;;;;1.10;1.00;;;8.00;99.90;;;;;;5033707;28;20213;-88
2022/11/18 06:18:25;;;;;;;0.90;0.90;;;8.00;99.90;;;;;;5026425;28;20712;-88
2022/11/18 06:20:54;;;;;;;2.10;1.80;;;7.90;99.90;;;;;;4997708;28;20181;-88
2022/11/18 06:23:20;;;;;;;2.40;1.30;;;7.90;99.90;;;;;;5013802;28;20265;-89
2022/11/18 06:25:47;;;;;;;0.80;0.80;;;7.90;99.90;;;;;;5025663;28;20644;-88
2022/11/18 06:28:15;;;;;;;1.40;1.30;;;7.80;99.90;;;;;;5023403;28;20182;-88
2022/11/18 06:30:42;;;;;;;1.50;1.40;;;7.80;99.90;;;;;;5027005;28;20171;-89
2022/11/18 06:33:08;;;;;;;1.10;1.00;;;7.80;99.90;;;;;;5026919;28;20182;-88
2022/11/18 06:35:35;;;;;;;1.87;0.83;;;7.80;99.90;;;;;;5020179;28;20199;-88
2022/11/18 06:38:01;;;;;;;1.33;0.80;;;7.80;99.90;;;;;;5042880;28;20194;-88
2022/11/18 06:40:27;;;;;;;1.70;0.80;;;7.80;99.90;;;;;;5022977;28;20178;-88
2022/11/18 06:46:54;;;;;;;1.90;1.00;;;7.80;99.90;;;;;;5041562;28;20221;-88
2022/11/18 06:48:32;;;;;;;0.93;0.70;;;7.90;99.90;;;;;;5041683;28;20216;-89
2022/11/18 06:50:58;;;;;;;2.03;1.10;;;7.90;99.90;;;;;;5027537;28;20204;-89
2022/11/18 06:53:24;;;;;;;2.43;1.00;;;7.90;99.90;;;;;;5024038;28;20182;-90
2022/11/18 06:55:50;;;;;;;1.47;1.10;;;7.90;99.90;;;;;;5020614;28;20204;-89
2022/11/18 06:58:16;;;;;;;1.67;1.20;;;7.90;99.90;;;;;;5015377;28;20198;-88
2022/11/18 07:00:42;;;;;;;1.87;1.40;;;7.90;99.90;;;;;;5015773;28;20182;-80
2022/11/18 07:03:08;;;;;;;2.07;1.40;;;7.90;99.90;;;;;;5015997;28;20301;-87
2022/11/18 07:05:33;;;;;;;2.47;1.70;;;8.00;99.90;;;;;;5031722;28;20256;-87
2022/11/18 07:07:59;;;;;;;2.03;1.83;;;7.90;99.90;;;;;;5015520;28;20229;-87
2022/11/18 07:10:25;;;;;;;3.00;2.17;;;7.90;99.90;;;;;;5016295;28;20175;-87
2022/11/18 07:12:51;;;;;;;2.83;2.00;;;8.00;99.90;;;;;;5016407;28;20186;-87
2022/11/18 07:15:17;;;;;;;1.83;1.40;;;8.00;99.90;;;;;;5016011;28;20278;-87
2022/11/18 07:17:42;;;;;;;1.23;1.10;;;8.00;99.90;;;;;;5015940;28;20210;-87
2022/11/18 07:20:09;;;;;;;1.80;1.30;;;8.00;99.90;;;;;;5016156;28;20218;-87
2022/11/18 07:22:35;;;;;;;3.67;1.00;;;8.00;99.90;;;;;;5015855;28;20632;-87
2022/11/18 07:25:00;;;;;;;2.23;1.33;;;8.10;99.90;;;;;;5015252;28;20224;-87
2022/11/18 07:27:26;;;;;;;2.07;1.00;;;8.10;99.90;;;;;;5015997;28;20184;-87
2022/11/18 07:29:52;;;;;;;0.87;0.87;;;8.10;99.90;;;;;;5015936;28;20175;-87
2022/11/18 07:32:18;;;;;;;1.20;1.07;;;8.10;99.90;;;;;;5016158;28;20217;-86
2022/11/18 07:34:44;;;;;;;1.20;1.10;;;8.10;99.90;;;;;;5016218;28;20209;-85
2022/11/18 07:37:10;;;;;;;8.33;5.50;;;8.10;99.90;;;;;;5016389;28;20205;-87
2022/11/18 07:39:36;;;;;;;8.53;5.77;;;8.20;99.90;;;;;;5034024;28;20677;-87
2022/11/18 07:42:02;;;;;;;5.40;3.13;;;8.20;99.90;;;;;;5020903;28;20172;-86
2022/11/18 07:44:28;;;;;;;3.97;3.57;;;8.30;99.90;;;;;;5033973;28;20689;-87
2022/11/18 07:46:54;;;;;;;4.73;3.93;;;8.30;99.90;;;;;;5013120;28;20176;-87
2022/11/18 07:49:20;;;;;;;3.17;2.20;;;8.30;99.90;;;;;;4999493;28;20181;-87
2022/11/18 07:51:50;;;;;;;1.77;1.33;;;8.30;99.90;;;;;;5030947;28;20179;-87
2022/11/18 07:54:17;;;;;;;2.80;1.50;;;8.40;99.90;;;;;;5007280;28;20198;-87
2022/11/18 07:56:42;;;;;;;2.00;1.50;;;8.40;99.90;;;;;;5005852;28;20186;-87
2022/11/18 07:59:08;;;;;;;1.30;1.20;;;8.40;99.90;;;;;;5008598;28;20196;-87
2022/11/18 08:01:35;;;;;;;1.43;1.33;;;8.40;99.90;;;;;;4996897;28;20221;-86
2022/11/18 08:04:10;;;;;;;2.40;1.23;;;8.40;99.90;;;;;;4995800;28;20187;-86
2022/11/18 08:06:36;;;;;;;2.10;1.90;;;8.40;99.90;;;;;;4995719;28;20207;-87
2022/11/18 08:09:03;;;;;;;1.87;1.53;;;8.40;99.90;;;;;;4995983;28;20175;-87
2022/11/18 08:11:29;;;;;;;1.53;1.10;;;8.40;99.90;;;;;;5012256;28;20178;-87
2022/11/18 08:13:55;;;;;;;0.50;0.50;;;8.40;99.90;;;;;;4995612;28;20270;-87
2022/11/18 08:16:24;;;;;;;0.50;0.50;;;8.40;99.90;;;;;;4995924;28;20183;-87
2022/11/18 08:18:51;;;;;;;0.60;0.60;;;8.40;99.90;;;;;;4995526;28;20194;-87
2022/11/18 08:21:18;;;;;;;1.13;0.50;;;8.40;99.90;;;;;;5012107;28;20202;-87
2022/11/18 08:23:55;;;;;;;2.67;0.73;;;8.40;99.90;;;;;;5012004;28;20270;-87
2022/11/18 08:26:22;;;;;;;0.57;0.57;;;8.40;99.90;;;;;;5012026;28;20213;-87
2022/11/18 08:28:48;;;;;;;0.60;0.50;;;8.40;99.90;;;;;;4995559;28;20175;-87
2022/11/18 08:31:32;;;;;;;1.40;0.53;;;8.40;99.90;;;;;;4996030;28;20179;-87
2022/11/18 08:34:06;;;;;;;0.90;0.70;;;8.40;99.90;;;;;;4997465;28;20167;-87
2022/11/18 08:36:34;;;;;;;1.20;0.70;;;8.40;99.90;;;;;;5015812;28;20179;-87
2022/11/18 08:39:03;;;;;;;0.80;0.73;;;8.40;99.90;;;;;;4999526;28;20179;-86
2022/11/18 08:41:38;;;;;;;1.50;0.73;;;8.50;99.90;;;;;;4999386;28;20179;-87
2022/11/18 08:44:05;;;;;;;0.93;0.60;;;8.50;99.90;;;;;;4999147;28;20183;-87
2022/11/18 08:46:31;;;;;;;0.50;0.50;;;8.50;99.90;;;;;;4999238;28;20211;-87
2022/11/18 08:48:57;;;;;;;0.60;0.60;;;8.50;99.90;;;;;;4999125;28;20179;-86
2022/11/18 08:51:24;;;;;;;0.57;0.57;;;8.60;99.90;;;;;;4999454;28;20270;-86
2022/11/18 08:53:50;;;;;;;1.00;0.90;;;8.60;99.90;;;;;;4999103;28;20184;-87
2022/11/18 08:56:18;;;;;;;2.43;1.00;;;8.60;99.90;;;;;;4999276;28;20183;-87
2022/11/18 08:58:44;;;;;;;1.60;1.20;;;8.60;99.90;;;;;;4998858;28;20179;-86
2022/11/18 09:01:10;;;;;;;2.07;0.90;;;8.70;99.90;;;;;;4998982;28;20179;-86
2022/11/18 09:03:36;;;;;;;1.40;1.20;;;8.70;99.90;;;;;;4998961;28;20187;-87
2022/11/18 09:06:10;;;;;;;1.33;1.13;;;8.80;99.90;;;;;;4999041;28;20207;-87
2022/11/18 09:08:37;;;;;;;1.83;1.00;;;8.80;99.90;;;;;;4998981;28;20202;-86
2022/11/18 09:11:08;;;;;;;0.77;0.73;;;8.80;99.90;;;;;;5015402;28;20175;-86
2022/11/18 09:13:33;;;;;;;1.27;1.17;;;8.90;99.90;;;;;;5031472;28;20179;-86
2022/11/18 09:16:00;;;;;;;1.63;0.80;;;8.90;99.90;;;;;;5015080;28;20210;-87
2022/11/18 09:18:26;;;;;;;1.37;0.90;;;8.90;99.90;;;;;;4998390;28;20187;-86
2022/11/18 09:20:54;;;;;;;2.53;0.90;;;9.00;99.90;;;;;;5031401;28;20210;-86
2022/11/18 09:23:21;;;;;;;0.77;0.77;;;9.00;99.90;;;;;;4998847;28;20276;-87
2022/11/18 09:25:46;;;;;;;0.90;0.90;;;8.90;99.90;;;;;;4998792;28;20301;-87
2022/11/18 09:28:12;;;;;;;1.33;0.80;;;9.00;99.90;;;;;;5014451;28;20327;-86
2022/11/18 09:30:38;;;;;;;0.63;0.60;;;9.10;99.90;;;;;;4998487;28;20182;-86
2022/11/18 09:33:05;;;;;;;0.70;0.50;;;9.10;99.90;;;;;;5014674;28;20178;-87
2022/11/18 09:35:32;;;;;;;0.73;0.70;;;9.10;99.90;;;;;;5027290;28;20212;-86
2022/11/18 09:37:58;;;;;;;0.60;0.60;;;9.10;99.90;;;;;;5017891;28;20267;-86
2022/11/18 09:40:25;;;;;;;1.60;0.67;;;9.10;99.90;;;;;;5035602;28;20225;-89
2022/11/18 09:43:02;;;;;;;0.80;0.70;;;9.10;99.90;;;;;;5018051;28;20193;-87
2022/11/18 09:45:36;;;;;;;1.13;0.50;;;9.10;99.90;;;;;;5017901;28;20210;-87
2022/11/18 09:49:11;;;;;;;0.60;0.60;;;9.00;99.90;;;;;;5034236;28;20235;-87
2022/11/18 09:51:08;;;;;;;0.40;0.40;;;9.00;99.90;;;;;;5034070;28;20247;-87
2022/11/18 09:53:34;;;;;;;0.40;0.40;;;9.00;99.90;;;;;;5010193;28;20237;-86
2022/11/18 09:56:02;;;;;;;2.03;0.50;;;9.00;99.90;;;;;;5017407;28;20206;-86
2022/11/18 09:58:33;;;;;;;0.20;0.20;;;9.00;99.90;;;;;;5033796;28;20175;-86
2022/11/18 10:01:01;;;;;;;0.47;0.40;;;9.00;99.90;;;;;;5033276;28;20189;-87
2022/11/18 10:03:30;;;;;;;1.50;0.50;;;9.00;99.90;;;;;;5017150;28;20210;-87
2022/11/18 10:06:05;;;;;;;0.50;0.40;;;9.00;99.90;;;;;;5017390;28;20221;-87
2022/11/18 10:08:57;;;;;;;0.40;0.40;;;9.00;99.90;;;;;;5017318;28;20281;-86
2022/11/18 10:11:27;;;;;;;0.50;0.50;;;9.00;99.90;;;;;;5017468;28;20175;-86
2022/11/18 10:14:05;;;;;;;0.40;0.40;;;9.00;99.90;;;;;;5016831;28;20224;-86
2022/11/18 10:16:52;;;;;;;0.93;0.50;;;9.00;99.90;;;;;;5016851;28;20200;-87
2022/11/18 10:19:50;;;;;;;1.80;0.60;;;9.10;99.90;;;;;;5033591;28;20162;-86
2022/11/18 10:22:32;;;;;;;1.10;1.00;;;9.10;99.90;;;;;;5017165;28;20182;-86
2022/11/18 10:25:01;;;;;;;0.83;0.70;;;9.10;99.90;;;;;;5016884;28;20264;-86
2022/11/18 10:27:38;;;;;;;1.20;1.10;;;9.10;99.90;;;;;;5016815;28;20174;-86
2022/11/18 10:30:11;;;;;;;0.63;0.63;;;9.10;99.90;;;;;;5016840;28;20185;-86
2022/11/18 10:32:52;;;;;;;0.70;0.60;;;9.10;99.90;;;;;;5017086;28;20175;-87
2022/11/18 10:35:30;;;;;;;1.20;0.80;;;9.10;99.90;;;;;;5033362;28;20207;-86
2022/11/18 10:38:19;;;;;;;1.07;0.70;;;9.20;99.90;;;;;;5033068;28;20182;-86
2022/11/18 10:41:00;;;;;;;0.70;0.63;;;9.30;99.90;;;;;;5013978;28;20197;-86
2022/11/18 10:43:56;;;;;;;1.37;0.60;;;9.50;99.90;;;;;;5033506;28;20187;-86
2022/11/18 10:46:28;;;;;;;0.70;0.53;;;9.70;99.90;;;;;;5013152;28;20326;-86
2022/11/18 10:49:16;;;;;;;0.50;0.40;;;9.90;99.90;;;;;;5016348;28;20283;-86
2022/11/18 10:52:10;;;;;;;0.67;0.60;;;10.00;99.90;;;;;;5033005;28;20265;-86
2022/11/18 10:54:36;;;;;;;0.77;0.67;;;10.20;99.90;;;;;;5016122;28;20202;-87
2022/11/18 10:57:18;;;;;;;1.20;0.63;;;10.30;99.90;;;;;;5014777;28;20167;-87
2022/11/18 10:59:47;;;;;;;1.70;0.80;;;10.30;99.90;;;;;;5016138;28;20211;-86
2022/11/18 11:02:16;;;;;;;1.10;0.80;;;10.30;99.90;;;;;;5016713;28;20178;-87
2022/11/18 11:04:50;;;;;;;0.60;0.60;;;10.30;99.90;;;;;;5016538;28;20237;-87
2022/11/18 11:07:31;;;;;;;0.57;0.50;;;10.30;99.90;;;;;;5001291;28;20186;-87
2022/11/18 11:10:03;;;;;;;1.13;0.50;;;10.30;99.90;;;;;;5016535;28;20244;-87
2022/11/18 11:12:34;;;;;;;1.13;0.40;;;10.40;99.90;;;;;;5016328;28;20213;-87
2022/11/18 11:15:18;;;;;;;0.60;0.60;;;10.40;99.90;;;;;;5015853;28;20204;-87
2022/11/18 11:20:57;;;;;;;1.23;0.40;;;10.40;99.90;;;;;;5029785;28;20178;-87
2022/11/18 11:23:24;;;;;;;5.93;3.03;;;10.40;99.90;;;;;;5047200;28;20174;-87
2022/11/18 11:26:33;;;;;;;1.53;1.43;;;10.40;99.90;;;;;;5043696;28;20231;-86
2022/11/18 11:29:21;;;;;;;3.70;2.97;;;10.30;99.90;;;;;;5030401;28;20175;-87
2022/11/18 11:32:24;;;;;;;2.90;1.90;;;10.20;99.90;;;;;;5028918;28;20176;-87
2022/11/18 11:35:12;;;;;;;0.80;0.80;;;10.20;99.90;;;;;;4995651;28;20210;-86
2022/11/18 11:38:00;;;;;;;0.70;0.70;;;10.30;99.90;;;;;;5013370;28;20635;-87
2022/11/18 11:40:36;;;;;;;2.20;0.77;;;10.30;99.90;;;;;;5012557;28;20179;-87
2022/11/18 11:43:14;;;;;;;2.63;1.10;;;10.30;99.90;;;;;;5025698;28;20209;-87
2022/11/18 11:46:19;;;;;;;1.93;1.00;;;10.50;99.90;;;;;;5029040;28;20222;-87
2022/11/18 11:49:30;;;;;;;2.60;1.57;;;10.50;99.90;;;;;;5021109;28;20194;-86
2022/11/18 11:52:08;;;;;;;1.67;1.57;;;10.50;99.90;;;;;;5034866;28;20245;-87
2022/11/18 11:55:04;;;;;;;0.83;0.83;;;10.50;99.90;;;;;;5052109;28;20204;-87
2022/11/18 11:57:52;;;;;;;4.13;3.77;;;10.40;99.90;;;;;;5051927;28;20181;-87
2022/11/18 12:00:19;;;;;;;2.33;1.30;;;10.40;99.90;;;;;;5035447;28;20192;-87
2022/11/18 12:02:45;;;;;;;2.37;0.87;;;10.40;99.90;;;;;;5035388;28;20196;-87
2022/11/18 12:05:32;;;;;;;1.00;0.90;;;10.40;99.90;;;;;;5025595;28;20218;-87
2022/11/18 12:08:09;;;;;;;1.53;1.10;;;10.40;99.90;;;;;;5031921;28;20202;-87
2022/11/18 12:11:06;;;;;;;2.37;0.90;;;10.50;99.90;;;;;;5035980;28;20640;-87
2022/11/18 12:13:57;;;;;;;1.67;1.00;;;10.50;99.90;;;;;;5036043;28;20166;-86
2022/11/18 12:19:38;;;;;;;1.47;1.00;;;10.60;99.90;;;;;;5035948;28;20262;-87
2022/11/18 12:22:13;;;;;;;0.50;0.50;;;10.80;99.90;;;;;;5036064;28;20187;-87
2022/11/18 12:24:47;;;;;;;0.83;0.80;;;11.00;99.90;;;;;;5035467;28;20229;-87
2022/11/18 12:27:36;;;;;;;0.73;0.43;;;11.00;99.90;;;;;;5035227;28;20182;-87
2022/11/18 12:30:03;;;;;;;1.60;0.60;;;11.20;99.90;;;;;;5035443;28;20209;-86
2022/11/18 12:32:45;;;;;;;2.97;0.70;;;11.40;99.90;;;;;;5036861;28;20539;-87
2022/11/18 12:35:11;;;;;;;1.27;0.50;;;11.40;99.90;;;;;;5035257;28;20218;-87
2022/11/18 12:37:44;;;;;;;0.80;0.50;;;11.40;99.90;;;;;;5051882;28;20183;-87
2022/11/18 12:40:30;;;;;;;0.97;0.80;;;11.20;99.90;;;;;;5052291;28;20172;-87
2022/11/18 12:45:41;;;;;;;0.63;0.50;;;10.80;99.90;;;;;;5035697;28;20203;-87
2022/11/18 12:48:27;;;;;;;0.97;0.40;;;10.70;99.90;;;;;;5035032;28;20179;-87
2022/11/18 12:50:55;;;;;;;0.60;0.57;;;10.80;99.90;;;;;;5018654;28;20194;-87
2022/11/18 12:53:36;;;;;;;0.73;0.73;;;10.90;99.90;;;;;;5035575;28;20179;-87
2022/11/18 12:56:19;;;;;;;0.93;0.50;;;10.80;99.90;;;;;;5035242;28;20260;-87
2022/11/18 12:58:51;;;;;;;1.13;0.60;;;10.90;99.90;;;;;;5035259;28;20178;-87
2022/11/18 13:01:30;;;;;;;1.13;0.50;;;10.90;99.90;;;;;;5016180;28;20195;-87
2022/11/18 13:04:20;;;;;;;1.43;0.50;;;10.80;99.90;;;;;;5015158;28;20182;-87
2022/11/18 13:06:46;;;;;;;2.10;0.50;;;10.70;99.90;;;;;;5004291;28;20226;-87
2022/11/18 13:09:24;;;;;;;1.30;0.50;;;10.60;99.90;;;;;;4999026;28;20198;-87
2022/11/18 13:12:07;;;;;;;2.20;0.60;;;10.80;99.90;;;;;;5008886;28;20190;-88
2022/11/18 13:17:50;;;;;;;0.67;0.50;;;11.10;99.90;;;;;;5031753;28;20175;-86
2022/11/18 13:20:21;;;;;;;1.00;0.70;;;11.10;99.90;;;;;;5018199;28;20171;-87
2022/11/18 13:25:37;;;;;;;1.47;0.80;;;10.80;99.90;;;;;;5014667;28;20227;-87
2022/11/18 13:28:21;;;;;;;1.27;0.63;;;10.70;99.90;;;;;;5016057;28;20168;-87
2022/11/18 13:30:58;;;;;;;1.27;0.50;;;10.70;99.90;;;;;;5009271;28;20179;-87
2022/11/18 13:33:25;;;;;;;0.70;0.60;;;10.60;99.90;;;;;;5034393;28;20175;-87
2022/11/18 13:35:51;;;;;;;0.60;0.60;;;10.50;99.90;;;;;;5033302;28;20237;-86
2022/11/18 13:38:23;;;;;;;0.50;0.50;;;10.50;99.90;;;;;;5017488;28;20187;-87
2022/11/18 13:41:11;;;;;;;0.63;0.63;;;10.50;99.90;;;;;;5018065;28;20182;-87
2022/11/18 13:43:37;;;;;;;0.57;0.50;;;10.60;99.90;;;;;;5017924;28;20175;-87
2022/11/18 13:46:08;;;;;;;1.67;0.67;;;10.60;99.90;;;;;;5017745;28;20219;-87
2022/11/18 13:48:39;;;;;;;2.00;0.70;;;10.60;99.90;;;;;;5018010;28;20182;-88
2022/11/18 13:51:05;;;;;;;1.23;0.67;;;10.60;99.90;;;;;;5018090;28;20188;-88
2022/11/18 13:53:37;;;;;;;1.77;0.63;;;10.60;99.90;;;;;;5014945;28;20180;-87
2022/11/18 13:56:06;;;;;;;1.07;0.60;;;10.50;99.90;;;;;;5026470;28;20280;-87